createdAt,value
2018-08-18T00:00:25.129Z,31.77
2018-08-18T00:02:55.753Z,31.25
2018-08-18T00:05:26.594Z,31.35
2018-08-18T00:07:57.176Z,30.97
2018-08-18T00:10:28.199Z,30.65
2018-08-18T00:12:58.933Z,31.42
2018-08-18T00:15:29.588Z,31.40
2018-08-18T00:18:00.301Z,31.82
2018-08-18T00:20:30.844Z,31.24
2018-08-18T00:23:01.569Z,30.45
2018-08-18T00:25:32.404Z,30.27
2018-08-18T00:28:17.001Z,30.65
2018-08-18T00:30:49.089Z,31.03
2018-08-18T00:33:20.769Z,30.72
2018-08-18T00:35:51.373Z,31.22
2018-08-18T00:38:22.837Z,30.72
2018-08-18T00:40:55.157Z,31.30
2018-08-18T00:43:25.794Z,31.34
2018-08-18T00:45:57.006Z,31.38
2018-08-18T00:48:27.617Z,31.11
2018-08-18T00:50:58.202Z,31.29
2018-08-18T00:53:29.038Z,31.57
2018-08-18T00:56:00.997Z,31.85
2018-08-18T00:58:32.298Z,31.83
2018-08-18T01:01:02.844Z,31.98
2018-08-18T01:03:40.548Z,31.37
2018-08-18T01:06:21.322Z,30.75
2018-08-18T01:08:56.013Z,31.03
2018-08-18T01:11:27.289Z,31.72
2018-08-18T01:13:59.189Z,31.68
2018-08-18T01:16:30.453Z,32.06
2018-08-18T01:19:01.053Z,32.14
2018-08-18T01:21:31.907Z,32.11
2018-08-18T01:24:02.689Z,31.46
2018-08-18T01:26:34.713Z,31.14
2018-08-18T01:29:16.108Z,31.14
2018-08-18T01:31:47.632Z,31.28
2018-08-18T01:34:18.481Z,30.47
2018-08-18T01:36:49.704Z,30.58
2018-08-18T01:39:22.049Z,30.34
2018-08-18T01:41:52.600Z,30.14
2018-08-18T01:44:24.644Z,30.20
2018-08-18T01:46:55.983Z,30.37
2018-08-18T01:49:36.385Z,30.41
2018-08-18T01:52:18.042Z,30.60
2018-08-18T01:54:48.663Z,30.45
2018-08-18T01:57:23.196Z,30.16
2018-08-18T01:59:53.728Z,30.56
2018-08-18T02:02:27.620Z,30.37
2018-08-18T02:05:06.850Z,30.07
2018-08-18T02:07:37.505Z,29.66
2018-08-18T02:10:08.204Z,30.41
2018-08-18T02:12:40.097Z,30.51
2018-08-18T02:15:10.764Z,29.79
2018-08-18T02:17:41.720Z,30.36
2018-08-18T02:20:12.265Z,30.27
2018-08-18T02:22:42.853Z,29.99
2018-08-18T02:25:13.443Z,30.02
2018-08-18T02:27:44.872Z,30.13
2018-08-18T02:30:20.524Z,30.40
2018-08-18T02:32:51.092Z,29.65
2018-08-18T02:35:23.201Z,29.96
2018-08-18T02:37:54.708Z,30.33
2018-08-18T02:40:25.225Z,30.42
2018-08-18T02:42:57.249Z,30.02
2018-08-18T02:45:27.861Z,30.39
2018-08-18T02:48:13.223Z,30.33
2018-08-18T02:50:48.953Z,30.15
2018-08-18T02:53:27.560Z,30.47
2018-08-18T02:55:58.301Z,30.76
2018-08-18T02:58:29.029Z,30.51
2018-08-18T03:00:59.696Z,30.47
2018-08-18T03:03:30.501Z,30.60
2018-08-18T03:06:15.357Z,29.67
2018-08-18T03:08:46.052Z,30.25
2018-08-18T03:11:16.593Z,30.65
2018-08-18T03:13:47.098Z,30.35
2018-08-18T03:16:17.748Z,31.17
2018-08-18T03:18:52.205Z,30.81
2018-08-18T03:21:29.556Z,30.61
2018-08-18T03:24:14.578Z,31.04
2018-08-18T03:26:47.079Z,31.43
2018-08-18T03:29:18.181Z,31.27
2018-08-18T03:31:49.181Z,31.00
2018-08-18T03:34:19.880Z,31.08
2018-08-18T03:36:51.560Z,30.65
2018-08-18T03:39:30.527Z,30.63
2018-08-18T03:42:02.280Z,30.77
2018-08-18T03:44:36.200Z,30.93
2018-08-18T03:47:06.934Z,30.68
2018-08-18T03:49:37.701Z,30.43
2018-08-18T03:52:08.289Z,30.53
2018-08-18T03:54:39.076Z,30.58
2018-08-18T03:57:09.505Z,30.10
2018-08-18T03:59:41.357Z,29.96
2018-08-18T04:02:11.917Z,29.74
2018-08-18T04:04:42.557Z,29.47
2018-08-18T04:07:13.150Z,29.74
2018-08-18T04:09:43.724Z,29.46
2018-08-18T04:12:14.420Z,29.51
2018-08-18T04:14:45.090Z,29.53
2018-08-18T04:17:30.166Z,29.87
2018-08-18T04:20:00.796Z,29.66
2018-08-18T04:22:31.691Z,29.88
2018-08-18T04:25:02.281Z,30.24
2018-08-18T04:27:47.586Z,30.06
2018-08-18T04:30:21.192Z,30.48
2018-08-18T04:32:54.985Z,30.37
2018-08-18T04:35:26.679Z,30.60
2018-08-18T04:37:58.338Z,30.56
2018-08-18T04:40:28.880Z,31.28
2018-08-18T04:43:01.044Z,31.53
2018-08-18T04:45:31.657Z,31.29
2018-08-18T04:48:02.348Z,32.25
2018-08-18T04:50:32.977Z,33.21
2018-08-18T04:53:03.685Z,33.07
2018-08-18T04:55:34.373Z,32.76
2018-08-18T04:58:05.103Z,32.75
2018-08-18T05:00:35.713Z,33.39
2018-08-18T05:03:06.512Z,33.21
2018-08-18T05:05:37.337Z,32.84
2018-08-18T05:08:08.081Z,33.37
2018-08-18T05:10:40.169Z,33.22
2018-08-18T05:13:12.263Z,33.92
2018-08-18T05:15:42.944Z,34.38
2018-08-18T05:18:13.835Z,34.32
2018-08-18T05:20:44.525Z,33.97
2018-08-18T05:23:25.957Z,34.54
2018-08-18T05:25:56.632Z,35.32
2018-08-18T05:28:27.528Z,35.37
2018-08-18T05:30:58.153Z,35.79
2018-08-18T05:33:29.417Z,35.89
2018-08-18T05:36:00.077Z,36.12
2018-08-18T05:38:31.025Z,35.83
2018-08-18T05:41:01.828Z,35.78
2018-08-18T05:43:32.583Z,35.57
2018-08-18T05:46:04.956Z,34.91
2018-08-18T05:48:36.954Z,34.33
2018-08-18T05:51:07.469Z,35.73
2018-08-18T05:53:38.166Z,36.40
2018-08-18T05:56:08.736Z,35.74
2018-08-18T05:58:54.029Z,35.88
2018-08-18T06:01:35.461Z,35.17
2018-08-18T06:04:11.498Z,34.85
2018-08-18T06:06:44.728Z,34.45
2018-08-18T06:09:16.401Z,34.48
2018-08-18T06:11:47.234Z,34.57
2018-08-18T06:14:18.377Z,35.53
2018-08-18T06:16:49.013Z,34.83
2018-08-18T06:19:20.402Z,35.73
2018-08-18T06:21:51.056Z,35.86
2018-08-18T06:24:22.246Z,35.82
2018-08-18T06:26:52.836Z,35.82
2018-08-18T06:29:23.637Z,36.41
2018-08-18T06:32:00.752Z,36.16
2018-08-18T06:34:34.809Z,36.12
2018-08-18T06:37:05.561Z,36.55
2018-08-18T06:39:52.865Z,37.84
2018-08-18T06:42:44.188Z,39.23
2018-08-18T06:45:17.417Z,39.40
2018-08-18T06:47:48.584Z,38.49
2018-08-18T06:50:20.045Z,39.33
2018-08-18T06:52:50.528Z,39.11
2018-08-18T06:55:21.417Z,38.85
2018-08-18T06:57:54.769Z,39.21
2018-08-18T07:00:26.305Z,38.81
2018-08-18T07:02:56.974Z,38.24
2018-08-18T07:05:27.642Z,38.78
2018-08-18T07:07:58.289Z,38.82
2018-08-18T07:10:37.705Z,38.96
2018-08-18T07:13:09.885Z,39.39
2018-08-18T07:15:41.970Z,40.06
2018-08-18T07:18:14.118Z,39.93
2018-08-18T07:20:45.364Z,39.36
2018-08-18T07:23:16.062Z,39.39
2018-08-18T07:25:51.818Z,39.65
2018-08-18T07:28:23.265Z,40.32
2018-08-18T07:30:54.039Z,40.38
2018-08-18T07:33:24.841Z,40.59
2018-08-18T07:35:56.241Z,40.53
2018-08-18T07:38:26.857Z,40.01
2018-08-18T07:40:57.729Z,40.50
2018-08-18T07:43:31.225Z,41.32
2018-08-18T07:46:09.024Z,41.51
2018-08-18T07:48:39.649Z,41.07
2018-08-18T07:51:11.568Z,40.64
2018-08-18T07:53:42.217Z,41.64
2018-08-18T07:56:12.688Z,41.02
2018-08-18T07:58:44.696Z,40.96
2018-08-18T08:01:15.377Z,41.86
2018-08-18T08:03:46.045Z,42.17
2018-08-18T08:06:16.526Z,41.80
2018-08-18T08:08:49.286Z,42.19
2018-08-18T08:11:20.049Z,42.82
2018-08-18T08:13:51.201Z,42.26
2018-08-18T08:16:21.917Z,42.52
2018-08-18T08:18:53.098Z,42.52
2018-08-18T08:21:24.158Z,43.55
2018-08-18T08:23:57.153Z,44.03
2018-08-18T08:26:27.901Z,42.94
2018-08-18T08:28:58.715Z,43.43
2018-08-18T08:31:29.313Z,43.49
2018-08-18T08:34:00.045Z,44.37
2018-08-18T08:36:30.881Z,44.73
2018-08-18T08:39:02.640Z,43.69
2018-08-18T08:41:33.909Z,43.76
2018-08-18T08:44:04.661Z,44.87
2018-08-18T08:46:35.339Z,43.57
2018-08-18T08:49:06.328Z,44.43
2018-08-18T08:51:36.965Z,44.96
2018-08-18T08:54:08.900Z,46.23
2018-08-18T08:56:40.088Z,46.70
2018-08-18T08:59:12.310Z,46.15
2018-08-18T09:01:42.916Z,46.05
2018-08-18T09:04:13.680Z,46.55
2018-08-18T09:06:48.308Z,44.97
2018-08-18T09:09:19.205Z,43.70
2018-08-18T09:11:49.858Z,45.52
2018-08-18T09:14:21.420Z,45.96
2018-08-18T09:16:52.329Z,45.41
2018-08-18T09:19:24.692Z,45.59
2018-08-18T09:21:56.714Z,45.24
2018-08-18T09:24:30.589Z,45.31
2018-08-18T09:27:04.404Z,45.30
2018-08-18T09:29:41.749Z,46.62
2018-08-18T09:32:12.421Z,45.74
2018-08-18T09:34:51.168Z,44.05
2018-08-18T09:37:22.353Z,44.79
2018-08-18T09:39:53.052Z,45.09
2018-08-18T09:42:23.796Z,44.21
2018-08-18T09:44:55.536Z,45.77
2018-08-18T09:47:26.574Z,44.89
2018-08-18T09:49:57.044Z,45.53
2018-08-18T09:52:27.680Z,44.91
2018-08-18T09:54:58.464Z,46.73
2018-08-18T09:57:29.116Z,46.27
2018-08-18T10:00:01.106Z,45.16
2018-08-18T10:02:31.711Z,45.44
2018-08-18T10:05:02.424Z,44.99
2018-08-18T10:07:33.021Z,45.87
2018-08-18T10:10:05.048Z,45.36
2018-08-18T10:12:35.774Z,46.91
2018-08-18T10:15:07.363Z,48.27
2018-08-18T10:17:37.961Z,46.76
2018-08-18T10:20:10.465Z,48.52
2018-08-18T10:22:41.837Z,45.38
2018-08-18T10:25:12.781Z,46.44
2018-08-18T10:27:43.455Z,47.55
2018-08-18T10:30:14.266Z,48.05
2018-08-18T10:33:01.188Z,47.24
2018-08-18T10:35:32.293Z,47.01
2018-08-18T10:38:04.209Z,48.82
2018-08-18T10:40:34.806Z,47.90
2018-08-18T10:43:05.346Z,49.26
2018-08-18T10:45:36.045Z,47.93
2018-08-18T10:48:06.839Z,48.34
2018-08-18T10:51:23.345Z,48.46
2018-08-18T10:53:54.609Z,48.47
2018-08-18T10:56:26.497Z,46.85
2018-08-18T10:59:15.993Z,46.58
2018-08-18T11:02:52.985Z,44.66
2018-08-18T11:05:24.560Z,44.78
2018-08-18T11:08:01.036Z,44.85
2018-08-18T11:10:33.469Z,44.76
2018-08-18T11:13:04.442Z,45.60
2018-08-18T11:15:35.189Z,46.91
2018-08-18T11:24:34.338Z,44.15
2018-08-18T11:27:05.088Z,43.73
2018-08-18T11:29:36.134Z,45.97
2018-08-18T11:32:06.805Z,47.84
2018-08-18T11:34:37.516Z,46.88
2018-08-18T11:37:09.021Z,46.83
2018-08-18T11:39:39.973Z,46.29
2018-08-18T11:42:10.665Z,47.09
2018-08-18T11:44:41.284Z,46.92
2018-08-18T11:47:11.913Z,45.64
2018-08-18T11:49:43.361Z,46.46
2018-08-18T11:52:13.966Z,45.19
2018-08-18T11:54:45.848Z,44.31
2018-08-18T11:57:16.440Z,46.07
2018-08-18T11:59:47.130Z,45.96
2018-08-18T12:02:18.526Z,46.33
2018-08-18T12:04:49.033Z,46.32
2018-08-18T12:07:19.809Z,45.15
2018-08-18T12:09:54.197Z,46.79
2018-08-18T12:12:24.895Z,47.87
2018-08-18T12:14:56.153Z,48.41
2018-08-18T12:17:26.998Z,47.65
2018-08-18T12:20:02.402Z,47.83
2018-08-18T12:22:34.290Z,47.86
2018-08-18T12:25:04.922Z,47.91
2018-08-18T12:27:35.756Z,47.41
2018-08-18T12:30:07.050Z,48.51
2018-08-18T12:32:37.440Z,47.36
2018-08-18T12:35:08.122Z,47.17
2018-08-18T12:37:39.203Z,47.38
2018-08-18T12:40:09.747Z,48.09
2018-08-18T12:42:41.977Z,47.13
2018-08-18T12:45:12.625Z,47.03
2018-08-18T12:47:57.252Z,47.14
2018-08-18T12:50:27.973Z,47.15
2018-08-18T12:53:00.169Z,46.93
2018-08-18T12:55:30.758Z,46.85
2018-08-18T12:58:01.461Z,47.28
2018-08-18T13:00:32.181Z,47.67
2018-08-18T13:03:02.809Z,47.45
2018-08-18T13:05:33.550Z,48.40
2018-08-18T13:08:04.330Z,47.84
2018-08-18T13:10:35.018Z,48.14
2018-08-18T13:13:06.572Z,48.10
2018-08-18T13:15:37.064Z,47.59
2018-08-18T13:18:09.052Z,47.31
2018-08-18T13:20:39.474Z,47.33
2018-08-18T13:23:10.508Z,47.08
2018-08-18T13:25:41.098Z,45.63
2018-08-18T13:28:12.995Z,46.55
2018-08-18T13:30:43.798Z,45.49
2018-08-18T13:33:14.616Z,47.70
2018-08-18T13:35:45.360Z,46.66
2018-08-18T13:38:28.752Z,46.13
2018-08-18T13:40:59.393Z,47.37
2018-08-18T13:43:44.932Z,46.58
2018-08-18T13:46:17.612Z,47.10
2018-08-18T13:48:54.173Z,47.58
2018-08-18T13:51:25.025Z,47.69
2018-08-18T13:53:56.368Z,47.07
2018-08-18T13:56:28.306Z,46.58
2018-08-18T13:58:59.318Z,46.23
2018-08-18T14:01:38.534Z,47.49
2018-08-18T14:04:16.229Z,46.87
2018-08-18T14:06:53.772Z,46.56
2018-08-18T14:09:24.517Z,46.93
2018-08-18T14:12:02.489Z,46.60
2018-08-18T14:14:33.136Z,46.22
2018-08-18T14:17:03.825Z,46.97
2018-08-18T14:19:34.654Z,46.10
2018-08-18T14:22:07.909Z,46.32
2018-08-18T14:24:40.516Z,45.83
2018-08-18T14:27:16.561Z,46.96
2018-08-18T14:29:47.224Z,46.09
2018-08-18T14:32:28.953Z,46.73
2018-08-18T14:35:07.364Z,46.20
2018-08-18T14:37:42.573Z,46.55
2018-08-18T14:40:17.915Z,47.32
2018-08-18T14:42:49.822Z,45.37
2018-08-18T14:45:21.877Z,45.48
2018-08-18T14:47:52.664Z,45.80
2018-08-18T14:50:26.476Z,45.30
2018-08-18T14:52:57.049Z,45.45
2018-08-18T14:55:27.708Z,46.04
2018-08-18T14:58:00.969Z,46.19
2018-08-18T15:00:32.900Z,45.64
2018-08-18T15:03:03.705Z,45.71
2018-08-18T15:05:34.524Z,45.68
2018-08-18T15:08:05.621Z,45.15
2018-08-18T15:10:45.521Z,45.98
2018-08-18T15:13:16.843Z,45.60
2018-08-18T15:15:47.662Z,46.07
2018-08-18T15:18:18.568Z,45.35
2018-08-18T15:20:49.513Z,44.97
2018-08-18T15:23:20.076Z,45.73
2018-08-18T15:25:51.979Z,44.55
2018-08-18T15:28:22.697Z,44.74
2018-08-18T15:30:54.884Z,44.76
2018-08-18T15:33:27.074Z,45.70
2018-08-18T15:35:59.157Z,45.57
2018-08-18T15:38:44.629Z,45.03
2018-08-18T15:41:15.446Z,44.36
2018-08-18T15:43:46.020Z,44.71
2018-08-18T15:46:16.657Z,45.22
2018-08-18T15:48:47.416Z,44.38
2018-08-18T15:51:18.298Z,44.17
2018-08-18T15:53:54.019Z,43.85
2018-08-18T15:56:25.769Z,43.23
2018-08-18T15:58:57.275Z,44.33
2018-08-18T16:01:32.756Z,44.57
2018-08-18T16:04:04.441Z,43.65
2018-08-18T16:06:36.377Z,43.85
2018-08-18T16:09:09.597Z,43.23
2018-08-18T16:11:40.384Z,43.68
2018-08-18T16:14:10.941Z,43.03
2018-08-18T16:16:58.466Z,43.29
2018-08-18T16:19:32.869Z,43.09
2018-08-18T16:22:05.132Z,43.02
2018-08-18T16:24:45.981Z,43.19
2018-08-18T16:27:16.642Z,42.31
2018-08-18T16:29:47.266Z,42.74
2018-08-18T16:32:25.635Z,42.65
2018-08-18T16:35:02.599Z,42.04
2018-08-18T16:37:36.172Z,42.27
2018-08-18T16:40:07.170Z,42.59
2018-08-18T16:42:37.867Z,42.07
2018-08-18T16:45:08.570Z,42.14
2018-08-18T16:47:41.761Z,41.83
2018-08-18T16:50:12.260Z,41.66
2018-08-18T16:52:44.177Z,42.03
2018-08-18T16:55:16.572Z,41.64
2018-08-18T16:57:47.288Z,40.81
2018-08-18T17:00:18.102Z,41.70
2018-08-18T17:02:48.956Z,41.81
2018-08-18T17:05:19.674Z,41.68
2018-08-18T17:07:50.586Z,41.46
2018-08-18T17:10:21.249Z,41.64
2018-08-18T17:12:51.976Z,41.65
2018-08-18T17:15:22.597Z,41.26
2018-08-18T17:17:53.390Z,40.96
2018-08-18T17:20:23.970Z,41.59
2018-08-18T17:22:54.825Z,41.52
2018-08-18T17:25:29.282Z,41.31
2018-08-18T17:28:00.037Z,41.31
2018-08-18T17:30:30.698Z,41.27
2018-08-18T17:33:01.901Z,41.28
2018-08-18T17:35:32.604Z,41.37
2018-08-18T17:38:05.192Z,41.32
2018-08-18T17:40:35.818Z,41.34
2018-08-18T17:43:07.694Z,41.20
2018-08-18T17:45:43.136Z,41.02
2018-08-18T17:48:13.781Z,40.88
2018-08-18T17:50:44.372Z,40.64
2018-08-18T17:53:15.837Z,40.48
2018-08-18T17:55:52.948Z,39.99
2018-08-18T17:58:23.838Z,40.72
2018-08-18T18:00:54.552Z,40.30
2018-08-18T18:03:25.533Z,40.50
2018-08-18T18:05:57.124Z,40.65
2018-08-18T18:08:28.595Z,40.35
2018-08-18T18:10:59.506Z,40.39
2018-08-18T18:13:30.945Z,40.55
2018-08-18T18:16:01.548Z,40.37
2018-08-18T18:18:46.604Z,40.26
2018-08-18T18:21:17.077Z,40.28
2018-08-18T18:23:47.969Z,40.47
2018-08-18T18:26:18.509Z,40.33
2018-08-18T18:28:49.273Z,40.13
2018-08-18T18:31:19.853Z,40.36
2018-08-18T18:33:55.530Z,39.89
2018-08-18T18:36:26.249Z,39.97
2018-08-18T18:38:58.199Z,39.64
2018-08-18T18:41:28.852Z,39.39
2018-08-18T18:44:04.376Z,39.51
2018-08-18T18:46:35.018Z,39.12
2018-08-18T18:49:24.386Z,38.93
2018-08-18T18:51:55.092Z,38.73
2018-08-18T18:54:25.939Z,39.03
2018-08-18T18:56:56.677Z,39.44
2018-08-18T18:59:28.034Z,39.19
2018-08-18T19:01:59.245Z,39.06
2018-08-18T19:04:29.918Z,39.21
2018-08-18T19:07:05.300Z,39.47
2018-08-18T19:09:36.150Z,39.84
2018-08-18T19:12:06.914Z,39.83
2018-08-18T19:14:38.844Z,39.65
2018-08-18T19:17:09.493Z,39.58
2018-08-18T19:19:41.642Z,39.66
2018-08-18T19:22:12.237Z,39.34
2018-08-18T19:24:42.880Z,39.20
2018-08-18T19:27:13.478Z,38.65
2018-08-18T19:29:44.172Z,39.00
2018-08-18T19:32:14.700Z,39.43
2018-08-18T19:34:45.681Z,38.97
2018-08-18T19:37:16.178Z,39.09
2018-08-18T19:39:47.185Z,39.14
2018-08-18T19:42:18.084Z,38.55
2018-08-18T19:44:50.684Z,39.01
2018-08-18T19:47:36.281Z,38.85
2018-08-18T19:50:09.153Z,38.43
2018-08-18T19:52:39.765Z,38.52
2018-08-18T19:55:13.729Z,38.52
2018-08-18T19:57:44.276Z,38.51
2018-08-18T20:00:21.737Z,38.38
2018-08-18T20:03:03.389Z,38.35
2018-08-18T20:05:34.277Z,38.37
2018-08-18T20:08:04.907Z,38.40
2018-08-18T20:10:49.009Z,38.32
2018-08-18T20:13:24.922Z,38.42
2018-08-18T20:15:57.137Z,38.26
2018-08-18T20:18:27.698Z,38.09
2018-08-18T20:21:00.391Z,37.73
2018-08-18T20:23:31.239Z,38.16
2018-08-18T20:26:02.898Z,38.17
2018-08-18T20:28:34.189Z,38.22
2018-08-18T20:31:04.925Z,38.39
2018-08-18T20:33:35.549Z,38.49
2018-08-18T20:36:06.233Z,38.44
2018-08-18T20:38:43.717Z,38.61
2018-08-18T20:41:14.741Z,38.72
2018-08-18T20:43:47.701Z,38.63
2018-08-18T20:46:18.474Z,37.84
2018-08-18T20:48:48.738Z,37.61
2018-08-18T20:51:23.162Z,37.83
2018-08-18T20:53:53.526Z,37.32
2018-08-18T20:56:23.979Z,37.09
2018-08-18T20:58:54.740Z,37.08
2018-08-18T21:01:25.556Z,35.75
2018-08-18T21:03:56.609Z,35.25
2018-08-18T21:06:28.749Z,35.46
2018-08-18T21:08:59.598Z,36.09
2018-08-18T21:11:30.436Z,36.84
2018-08-18T21:14:01.201Z,36.72
2018-08-18T21:16:31.891Z,35.70
2018-08-18T21:19:02.681Z,35.23
2018-08-18T21:21:36.766Z,35.63
2018-08-18T21:24:07.539Z,35.17
2018-08-18T21:26:39.018Z,35.32
2018-08-18T21:29:09.855Z,35.24
2018-08-18T21:31:40.499Z,35.45
2018-08-18T21:34:11.269Z,35.27
2018-08-18T21:36:42.237Z,35.01
2018-08-18T21:39:12.844Z,35.06
2018-08-18T21:41:45.101Z,35.20
2018-08-18T21:44:16.300Z,35.23
2018-08-18T21:46:47.797Z,35.25
2018-08-18T21:49:18.228Z,34.92
2018-08-18T21:51:48.854Z,35.07
2018-08-18T21:54:19.469Z,35.32
2018-08-18T21:56:59.405Z,35.29
2018-08-18T21:59:52.212Z,35.34
2018-08-18T22:02:41.212Z,35.54
2018-08-18T22:05:14.657Z,35.22
2018-08-18T22:07:51.732Z,35.36
2018-08-18T22:10:22.719Z,35.21
2018-08-18T22:12:53.564Z,34.97
2018-08-18T22:15:24.269Z,34.25
2018-08-18T22:17:55.186Z,34.71
2018-08-18T22:20:25.783Z,34.71
2018-08-18T22:22:56.646Z,34.57
2018-08-18T22:25:27.240Z,34.20
2018-08-18T22:27:58.149Z,34.48
2018-08-18T22:30:29.128Z,34.25
2018-08-18T22:33:01.442Z,34.25
2018-08-18T22:35:32.229Z,34.42
2018-08-18T22:38:04.259Z,34.50
2018-08-18T22:40:37.041Z,34.37
2018-08-18T22:43:07.985Z,34.76
2018-08-18T22:45:39.109Z,34.74
2018-08-18T22:48:11.025Z,34.52
2018-08-18T22:50:41.409Z,34.69
2018-08-18T22:53:16.180Z,34.74
2018-08-18T22:55:46.945Z,34.89
2018-08-18T22:58:17.546Z,34.39
2018-08-18T23:00:51.557Z,34.55
2018-08-18T23:03:22.113Z,35.03
2018-08-18T23:05:52.641Z,34.47
2018-08-18T23:08:23.493Z,34.14
2018-08-18T23:10:54.013Z,33.83
2018-08-18T23:13:52.425Z,33.99
2018-08-18T23:16:22.935Z,34.36
2018-08-18T23:18:53.721Z,34.25
2018-08-18T23:21:29.032Z,34.35
2018-08-18T23:24:02.125Z,33.73
2018-08-18T23:26:32.862Z,33.50
2018-08-18T23:29:03.629Z,34.13
2018-08-18T23:31:34.365Z,34.46
2018-08-18T23:34:05.108Z,34.85
2018-08-18T23:36:35.845Z,35.03
2018-08-18T23:39:08.712Z,34.26
2018-08-18T23:41:39.361Z,34.54
2018-08-18T23:44:09.983Z,34.79
2018-08-18T23:46:40.573Z,33.91
2018-08-18T23:49:11.313Z,33.10
2018-08-18T23:51:43.066Z,33.33
2018-08-18T23:54:18.645Z,33.42
2018-08-18T23:56:49.445Z,33.48
2018-08-18T23:59:21.529Z,33.56
